Time;durP1;ratioP1;P1;durP2;ratioP2;P2;SDS_P1;SDS_P2;PMS_P1;PMS_P2;Temp;Humidity;BMP_temperature;BMP_pressure;BME280_temperature;BME280_humidity;BME280_pressure;Samples;Min_cycle;Max_cycle;Signal;HPM_P1;HPM_P2
2021/10/31 00:01:09;;;;;;;27.58;24.05;;;;;;;14.38;55.48;94987.31;4953963;28;20023;-70
2021/10/31 00:03:35;;;;;;;28.80;24.52;;;;;;;14.81;54.48;95000.25;4974130;28;20023;-70
2021/10/31 00:06:01;;;;;;;32.38;26.80;;;;;;;15.11;53.41;94998.13;4973269;28;20113;-70
2021/10/31 00:08:26;;;;;;;37.72;30.83;;;;;;;15.12;53.25;95004.28;4974193;28;20037;-70
2021/10/31 00:10:52;;;;;;;30.60;26.50;;;;;;;15.13;53.04;95009.28;4973873;28;20034;-71
2021/10/31 00:13:17;;;;;;;37.20;29.15;;;;;;;15.09;52.97;95006.50;4973723;28;20539;-71
2021/10/31 00:15:43;;;;;;;37.47;29.10;;;;;;;15.01;53.11;95018.13;4959320;28;20026;-70
2021/10/31 00:18:09;;;;;;;34.50;26.75;;;;;;;15.06;53.27;95019.78;4974134;28;20023;-70
2021/10/31 00:20:34;;;;;;;36.95;29.20;;;;;;;15.02;53.72;95017.00;4973828;28;20038;-70
2021/10/31 00:22:59;;;;;;;35.85;28.15;;;;;;;15.04;53.58;95020.09;4974069;28;20030;-70
2021/10/31 00:25:25;;;;;;;35.03;28.35;;;;;;;15.09;53.34;95006.50;4974559;28;20102;-70
2021/10/31 00:27:51;;;;;;;32.38;24.70;;;;;;;15.18;52.85;95011.75;4974310;28;20470;-70
2021/10/31 00:30:16;;;;;;;30.92;24.23;;;;;;;15.26;52.93;95010.06;4973439;28;20469;-70
2021/10/31 00:32:42;;;;;;;27.55;23.60;;;;;;;15.06;52.87;95001.81;4972118;28;20499;-70
2021/10/31 00:35:08;;;;;;;24.52;21.88;;;;;;;15.40;52.66;95023.88;4973877;28;20114;-70
2021/10/31 00:37:33;;;;;;;31.58;24.33;;;;;;;15.52;52.39;95015.84;4973835;28;20030;-70
2021/10/31 00:39:58;;;;;;;27.15;24.05;;;;;;;15.54;52.23;95015.50;4973918;28;20055;-70
2021/10/31 00:42:24;;;;;;;26.33;22.42;;;;;;;15.52;51.85;95005.13;4973305;28;20077;-70
2021/10/31 00:44:49;;;;;;;29.88;25.25;;;;;;;15.68;51.65;95018.63;4966436;28;20070;-71
2021/10/31 00:47:14;;;;;;;27.05;23.95;;;;;;;15.68;51.29;95007.91;4973320;28;20027;-70
2021/10/31 00:49:40;;;;;;;26.95;19.88;;;;;;;15.71;51.52;95017.94;4973697;28;20022;-70
2021/10/31 00:52:06;;;;;;;32.50;23.60;;;;;;;15.52;51.54;94996.31;4972925;28;20035;-70
2021/10/31 00:54:34;;;;;;;25.70;20.52;;;;;;;15.40;51.40;94991.72;4972368;28;20031;-70
2021/10/31 00:56:59;;;;;;;22.73;20.30;;;;;;;15.44;51.41;95013.28;4973522;28;20101;-70
2021/10/31 00:59:25;;;;;;;27.63;22.42;;;;;;;15.34;51.91;95007.25;4972990;28;20556;-69
2021/10/31 01:01:51;;;;;;;23.35;20.40;;;;;;;15.27;51.65;95012.41;4972780;28;20034;-70
2021/10/31 01:04:20;;;;;;;32.35;24.38;;;;;;;15.21;51.96;95013.00;4972832;28;20065;-71
2021/10/31 01:07:03;;;;;;;34.70;27.02;;;;;;;15.13;52.23;95020.00;4972095;28;20027;-71
2021/10/31 01:09:47;;;;;;;26.95;23.15;;;;;;;15.04;52.16;95014.75;4973211;28;20484;-70
2021/10/31 01:12:28;;;;;;;25.30;22.58;;;;;;;14.98;52.39;95009.97;4970873;28;20026;-70
2021/10/31 01:15:08;;;;;;;30.80;24.58;;;;;;;15.12;51.74;95006.97;4972375;28;20596;-70
2021/10/31 01:17:39;;;;;;;31.52;23.60;;;;;;;14.90;52.55;95011.66;4968593;28;20461;-70
2021/10/31 01:20:10;;;;;;;29.90;24.73;;;;;;;14.88;52.70;95008.50;4969681;28;20038;-70
2021/10/31 01:23:11;;;;;;;26.27;22.27;;;;;;;14.89;52.79;95002.03;4973140;28;20026;-70
2021/10/31 01:25:51;;;;;;;24.17;20.92;;;;;;;14.92;52.42;95001.38;4957614;28;20286;-69
2021/10/31 01:28:47;;;;;;;29.98;24.60;;;;;;;14.97;52.53;95006.50;4971508;28;20065;-70
2021/10/31 01:31:40;;;;;;;22.65;19.30;;;;;;;14.90;52.66;95000.94;4972249;28;20052;-70
2021/10/31 01:34:11;;;;;;;20.48;18.35;;;;;;;14.81;52.62;95008.28;4972316;28;20027;-70
2021/10/31 01:36:55;;;;;;;20.27;18.08;;;;;;;14.78;52.38;95022.31;4972871;28;20495;-69
2021/10/31 01:39:32;;;;;;;19.63;16.00;;;;;;;14.78;52.37;95017.75;4972822;28;20113;-70
2021/10/31 01:42:22;;;;;;;19.35;17.33;;;;;;;14.82;52.52;95018.66;4972420;28;20030;-69
2021/10/31 01:44:51;;;;;;;23.05;17.38;;;;;;;14.86;52.54;95007.28;4971000;28;20035;-69
2021/10/31 01:47:42;;;;;;;16.25;13.88;;;;;;;15.00;52.55;95023.81;4974040;28;20057;-70
2021/10/31 01:50:40;;;;;;;14.18;12.80;;;;;;;15.15;52.10;95016.97;4972207;28;20031;-70
2021/10/31 01:53:11;;;;;;;15.90;13.77;;;;;;;15.21;51.97;95018.34;4972171;28;20034;-70
2021/10/31 01:55:45;;;;;;;14.35;12.90;;;;;;;15.18;51.97;95010.97;4971263;28;20023;-70
2021/10/31 01:58:14;;;;;;;16.30;14.77;;;;;;;15.16;51.83;95023.94;4954906;28;20031;-69
2021/10/31 02:00:43;;;;;;;14.43;12.95;;;;;;;15.03;51.80;95017.78;4971291;28;20428;-69
2021/10/31 02:03:11;;;;;;;15.45;13.80;;;;;;;14.96;51.98;95002.28;4974381;28;20022;-69
2021/10/31 02:05:38;;;;;;;18.58;16.65;;;;;;;14.86;51.45;95000.03;4971013;28;20472;-69
2021/10/31 02:08:07;;;;;;;19.60;17.35;;;;;;;14.81;51.43;95010.97;4972203;28;20683;-70
2021/10/31 02:10:34;;;;;;;19.95;17.02;;;;;;;14.62;51.70;95008.81;4970387;28;20023;-69
2021/10/31 02:13:02;;;;;;;18.58;16.55;;;;;;;14.58;52.08;95023.97;4971754;28;20034;-69
2021/10/31 02:15:28;;;;;;;21.85;17.13;;;;;;;14.50;51.98;95020.28;4970085;28;20026;-70
2021/10/31 02:17:55;;;;;;;17.95;16.02;;;;;;;14.41;52.30;95000.81;4971822;28;20023;-70
2021/10/31 02:20:22;;;;;;;16.48;14.75;;;;;;;14.41;52.49;95021.44;4971469;28;20570;-70
2021/10/31 02:22:55;;;;;;;12.25;11.15;;;;;;;14.22;52.83;95019.28;4970318;28;20027;-71
2021/10/31 02:25:25;;;;;;;14.10;12.73;;;;;;;14.29;52.63;95030.22;4971401;28;20023;-69
2021/10/31 02:27:50;;;;;;;14.73;13.30;;;;;;;14.17;53.10;95006.09;4971926;28;20027;-71
2021/10/31 02:30:17;;;;;;;12.90;11.70;;;;;;;14.20;53.03;95010.81;4970821;28;20037;-71
2021/10/31 02:32:43;;;;;;;12.30;11.10;;;;;;;14.23;52.78;95026.22;4971004;28;20065;-69
2021/10/31 02:35:11;;;;;;;12.15;11.10;;;;;;;14.22;53.18;95006.66;4954341;28;20047;-69
2021/10/31 02:37:38;;;;;;;11.23;10.23;;;;;;;14.30;52.88;95015.75;4971718;28;20562;-69
2021/10/31 02:40:05;;;;;;;12.60;11.35;;;;;;;14.31;52.84;95004.69;4970204;28;20476;-69
2021/10/31 02:42:31;;;;;;;10.43;9.10;;;;;;;14.41;52.63;94990.13;4970984;28;20500;-70
2021/10/31 02:44:56;;;;;;;11.18;9.63;;;;;;;14.55;52.40;94997.88;4972535;28;20101;-69
2021/10/31 02:47:56;;;;;;;11.45;10.07;;;;;;;14.75;51.93;95013.06;4972545;28;20038;-70
2021/10/31 02:50:24;;;;;;;10.50;9.52;;;;;;;14.83;51.68;95014.06;4971221;28;20054;-70
2021/10/31 02:53:13;;;;;;;9.48;7.50;;;;;;;15.00;51.05;95011.19;4969514;28;20063;-70
2021/10/31 02:55:58;;;;;;;8.18;7.47;;;;;;;14.91;50.86;95026.59;4968274;28;20070;-69
2021/10/31 02:59:07;;;;;;;8.73;7.93;;;;;;;15.00;50.56;95026.50;4971472;28;20027;-69
2021/10/31 03:01:35;;;;;;;8.50;7.70;;;;;;;14.88;50.88;95016.53;4964818;28;20169;-70
2021/10/31 03:04:01;;;;;;;10.88;8.02;;;;;;;14.87;50.88;95031.03;4970915;28;20031;-70
2021/10/31 03:06:26;;;;;;;7.85;7.15;;;;;;;14.67;50.41;95007.81;4971300;28;20031;-70
2021/10/31 03:08:52;;;;;;;9.15;8.30;;;;;;;14.62;50.60;95010.72;4971393;28;20030;-70
2021/10/31 03:11:20;;;;;;;7.35;6.65;;;;;;;14.48;50.39;95008.34;4970973;28;20026;-70
2021/10/31 03:13:45;;;;;;;7.75;7.05;;;;;;;14.41;50.70;95008.06;4970605;28;20039;-70
2021/10/31 03:16:11;;;;;;;8.48;7.15;;;;;;;14.35;50.78;95022.78;4973362;28;20019;-70
2021/10/31 03:18:37;;;;;;;7.63;6.63;;;;;;;14.20;50.96;95019.59;4971137;28;20023;-69
2021/10/31 03:21:03;;;;;;;6.90;6.22;;;;;;;14.12;51.00;95012.44;4970600;28;20113;-70
2021/10/31 03:23:28;;;;;;;7.53;6.53;;;;;;;14.08;50.89;95016.91;4970396;28;20094;-69
2021/10/31 03:25:54;;;;;;;8.20;7.40;;;;;;;14.11;51.11;95021.56;4953972;28;20121;-70
2021/10/31 03:28:19;;;;;;;6.82;6.07;;;;;;;13.99;51.07;95011.63;4971212;28;20110;-69
2021/10/31 03:30:45;;;;;;;10.35;6.70;;;;;;;13.89;51.04;95011.25;4969767;28;20027;-70
2021/10/31 03:33:12;;;;;;;7.82;7.03;;;;;;;13.84;51.61;95019.47;4970467;28;20035;-69
2021/10/31 03:35:38;;;;;;;8.82;7.03;;;;;;;13.86;51.57;95023.34;4972443;28;20429;-70
2021/10/31 03:38:03;;;;;;;10.05;7.18;;;;;;;13.65;51.74;95009.22;4977497;28;20058;-70
2021/10/31 03:40:29;;;;;;;7.40;6.68;;;;;;;13.67;51.84;95031.06;4977101;28;20030;-70
2021/10/31 03:42:55;;;;;;;7.53;6.00;;;;;;;13.57;51.86;95028.78;4977084;28;20035;-70
2021/10/31 03:45:20;;;;;;;7.10;6.50;;;;;;;13.53;51.95;95024.06;4976615;28;20172;-70
2021/10/31 03:47:47;;;;;;;6.47;5.88;;;;;;;13.45;51.92;95000.84;4995675;23;20046;-74
2021/10/31 03:50:14;;;;;;;6.95;6.35;;;;;;;13.49;52.06;95003.66;4998616;28;20031;-73
2021/10/31 03:52:40;;;;;;;7.00;6.35;;;;;;;13.50;51.76;95008.69;4988686;28;20069;-73
2021/10/31 03:55:07;;;;;;;13.52;7.38;;;;;;;13.58;52.07;95015.09;4995435;28;20110;-73
2021/10/31 03:57:34;;;;;;;7.35;6.57;;;;;;;13.56;51.91;95011.16;4996868;28;20022;-73
2021/10/31 03:59:59;;;;;;;7.47;6.78;;;;;;;13.50;51.85;95007.91;5005122;28;20491;-73
2021/10/31 04:02:24;;;;;;;7.03;6.32;;;;;;;13.50;52.02;95014.03;4983674;28;20026;-73
2021/10/31 04:04:50;;;;;;;7.32;6.68;;;;;;;13.39;51.90;94998.72;4988320;28;20698;-74
2021/10/31 04:07:15;;;;;;;7.90;7.22;;;;;;;13.39;52.11;95010.19;4995572;28;20089;-73
2021/10/31 04:09:41;;;;;;;8.10;7.40;;;;;;;13.35;52.11;95003.91;4997018;28;20033;-73
2021/10/31 04:12:06;;;;;;;9.38;8.45;;;;;;;13.33;52.15;95005.34;4996493;28;20061;-73
2021/10/31 04:14:32;;;;;;;8.70;7.78;;;;;;;13.24;52.42;94994.72;5009753;28;20476;-73
2021/10/31 04:16:57;;;;;;;8.90;8.10;;;;;;;13.21;52.28;95000.69;4985905;28;20034;-74
2021/10/31 04:19:22;;;;;;;9.48;7.22;;;;;;;13.65;51.11;94990.50;4986543;28;20615;-73
2021/10/31 04:21:48;;;;;;;8.38;7.57;;;;;;;13.13;51.94;94988.16;4995968;28;20050;-72
2021/10/31 04:24:13;;;;;;;10.35;7.90;;;;;;;12.97;52.59;94994.06;4996237;28;20033;-72
2021/10/31 04:26:39;;;;;;;9.00;8.10;;;;;;;12.89;52.92;94986.88;5011463;28;20026;-73
2021/10/31 04:29:04;;;;;;;9.35;8.50;;;;;;;12.84;53.08;94981.69;4995364;28;20026;-73
2021/10/31 04:31:29;;;;;;;9.20;8.30;;;;;;;12.80;53.04;94978.13;4973943;28;20028;-72
2021/10/31 04:33:55;;;;;;;9.48;8.45;;;;;;;12.81;53.09;94997.59;5001417;28;20026;-73
2021/10/31 04:36:20;;;;;;;8.32;7.53;;;;;;;12.73;53.18;94991.97;4975880;28;20122;-73
2021/10/31 04:38:49;;;;;;;9.30;8.30;;;;;;;12.71;53.13;94985.41;4976982;28;20085;-73
2021/10/31 04:41:14;;;;;;;8.60;7.80;;;;;;;12.75;53.08;94984.44;4976652;28;20037;-73
2021/10/31 04:43:40;;;;;;;8.38;7.57;;;;;;;12.81;53.10;94993.03;4975454;28;20125;-73
2021/10/31 04:46:05;;;;;;;10.48;9.32;;;;;;;12.76;52.98;94985.22;4981701;28;20023;-73
2021/10/31 04:48:31;;;;;;;8.75;7.82;;;;;;;12.78;52.84;94982.22;4987152;28;20122;-73
2021/10/31 04:50:56;;;;;;;8.30;7.32;;;;;;;12.68;53.47;94972.69;4977943;28;20461;-73
2021/10/31 04:53:22;;;;;;;8.82;7.93;;;;;;;12.70;53.30;94979.28;4973452;28;20089;-74
2021/10/31 04:55:47;;;;;;;9.48;8.57;;;;;;;12.69;53.19;94982.25;4973967;28;20030;-74
2021/10/31 04:58:13;;;;;;;7.50;6.72;;;;;;;12.65;53.34;94982.13;4973726;28;20022;-73
2021/10/31 05:00:39;;;;;;;7.28;6.55;;;;;;;12.61;53.08;94978.53;4974902;28;20034;-74
2021/10/31 05:03:04;;;;;;;8.55;7.50;;;;;;;12.69;53.38;94976.91;4996744;28;20026;-73
2021/10/31 05:05:31;;;;;;;7.68;6.72;;;;;;;12.63;53.41;94972.84;4977115;28;20026;-73
2021/10/31 05:07:58;;;;;;;8.15;6.93;;;;;;;12.67;53.00;94979.91;4993207;28;20026;-74
2021/10/31 05:10:26;;;;;;;8.27;6.90;;;;;;;12.62;52.92;94968.63;4992551;28;20037;-73
2021/10/31 05:12:52;;;;;;;6.90;6.20;;;;;;;12.63;53.14;94978.97;4992382;28;20373;-73
2021/10/31 05:15:18;;;;;;;7.45;6.75;;;;;;;12.53;53.26;94957.97;4989405;28;20031;-74
2021/10/31 05:17:44;;;;;;;9.10;7.32;;;;;;;12.48;52.93;94950.94;4984455;28;20030;-74
2021/10/31 05:20:11;;;;;;;12.23;7.35;;;;;;;12.53;53.31;94955.31;4975549;28;20027;-73
2021/10/31 05:22:37;;;;;;;7.18;6.50;;;;;;;12.58;53.13;94960.47;4973264;28;20062;-74
2021/10/31 05:25:05;;;;;;;6.72;6.00;;;;;;;12.41;53.13;94920.53;4973087;28;20473;-74
2021/10/31 05:27:30;;;;;;;6.88;6.15;;;;;;;12.65;52.92;94952.00;4973377;28;20031;-73
2021/10/31 05:29:56;;;;;;;8.93;6.90;;;;;;;12.67;52.63;94953.22;4986288;28;20082;-73
2021/10/31 05:32:21;;;;;;;6.30;5.68;;;;;;;12.63;52.59;94946.16;4974335;28;20027;-73
2021/10/31 05:34:47;;;;;;;6.95;6.30;;;;;;;12.52;52.55;94956.44;4970650;28;20533;-74
2021/10/31 05:37:13;;;;;;;6.95;5.60;;;;;;;12.17;53.68;94955.75;4953851;29;20035;-73
2021/10/31 05:39:38;;;;;;;7.03;6.18;;;;;;;12.27;53.41;94950.06;4953635;28;20063;-74
2021/10/31 05:42:04;;;;;;;8.02;6.20;;;;;;;12.32;53.67;94952.56;4953071;28;20066;-73
2021/10/31 05:44:29;;;;;;;9.90;6.70;;;;;;;12.33;53.39;94946.13;4953342;28;20019;-73
2021/10/31 05:46:54;;;;;;;7.32;6.63;;;;;;;12.38;53.53;94953.94;4965937;28;20060;-74
2021/10/31 05:49:20;;;;;;;6.97;6.28;;;;;;;12.31;53.43;94935.00;4981511;28;20094;-73
2021/10/31 05:51:45;;;;;;;6.85;6.25;;;;;;;12.37;53.53;94948.94;4990139;28;20023;-73
2021/10/31 05:54:11;;;;;;;7.07;6.38;;;;;;;12.36;53.09;94942.06;5006978;28;20030;-72
2021/10/31 05:56:37;;;;;;;5.80;5.22;;;;;;;12.37;53.12;94927.59;4992359;28;20106;-72
2021/10/31 05:59:02;;;;;;;9.40;5.18;;;;;;;12.44;53.56;94941.25;4991990;28;20053;-73
2021/10/31 06:01:28;;;;;;;5.72;5.22;;;;;;;12.44;53.17;94939.38;4966302;28;20302;-72
2021/10/31 06:03:53;;;;;;;6.07;5.50;;;;;;;12.48;53.16;94940.25;4979673;28;20042;-73
2021/10/31 06:06:22;;;;;;;6.03;5.53;;;;;;;12.50;53.45;94934.63;4990550;28;20033;-72
2021/10/31 06:08:49;;;;;;;8.18;5.82;;;;;;;12.49;53.06;94925.84;4992523;28;20033;-73
2021/10/31 06:11:15;;;;;;;6.45;5.85;;;;;;;12.61;53.16;94945.72;4992022;28;20610;-73
2021/10/31 06:13:40;;;;;;;6.05;5.45;;;;;;;12.64;52.87;94943.22;4991733;28;20057;-73
2021/10/31 06:16:07;;;;;;;6.10;5.50;;;;;;;12.66;52.67;94945.53;4981008;28;20039;-73
2021/10/31 06:18:34;;;;;;;5.70;5.15;;;;;;;12.69;52.92;94935.00;4971602;28;20026;-71
2021/10/31 06:21:01;;;;;;;5.43;4.82;;;;;;;12.71;52.74;94934.69;5006650;28;20026;-72
2021/10/31 06:23:26;;;;;;;5.90;5.30;;;;;;;12.76;52.56;94934.50;5006292;28;20018;-71
2021/10/31 06:25:52;;;;;;;6.72;5.25;;;;;;;12.81;52.47;94936.22;4991427;28;20026;-70
2021/10/31 06:28:17;;;;;;;7.05;5.15;;;;;;;12.75;52.61;94940.94;4991232;28;20101;-70
2021/10/31 06:30:44;;;;;;;5.43;4.90;;;;;;;12.66;52.93;94932.19;4983077;28;20026;-68
2021/10/31 06:33:09;;;;;;;5.13;4.63;;;;;;;12.75;52.95;94939.06;4979263;28;20169;-65
2021/10/31 06:35:35;;;;;;;5.57;4.20;;;;;;;12.97;52.83;94947.88;4984074;28;20106;-65
2021/10/31 06:38:01;;;;;;;6.05;4.90;;;;;;;13.09;52.49;94944.50;4989660;28;20035;-66
2021/10/31 06:40:27;;;;;;;5.47;4.82;;;;;;;13.16;52.19;94934.13;4990658;28;20030;-66
2021/10/31 06:42:53;;;;;;;6.38;4.38;;;;;;;13.29;51.52;94930.41;4991096;28;20022;-73
2021/10/31 06:45:18;;;;;;;5.07;4.63;;;;;;;13.34;51.67;94932.13;4981357;28;20019;-72
2021/10/31 06:47:44;;;;;;;4.68;4.07;;;;;;;13.37;51.46;94934.94;4973529;28;20030;-77
2021/10/31 06:50:09;;;;;;;5.05;4.55;;;;;;;13.41;51.40;94937.72;4981446;28;20053;-65
2021/10/31 06:52:34;;;;;;;5.53;4.60;;;;;;;13.42;51.50;94934.72;4990279;28;20361;-65
2021/10/31 06:55:00;;;;;;;5.70;4.07;;;;;;;13.46;51.33;94924.16;4989579;28;20041;-65
2021/10/31 06:57:26;;;;;;;5.43;4.32;;;;;;;13.61;51.09;94925.44;4990903;28;20037;-64
2021/10/31 06:59:51;;;;;;;7.10;4.47;;;;;;;13.56;51.04;94917.63;4988012;28;20030;-64
2021/10/31 07:02:16;;;;;;;4.40;4.03;;;;;;;13.51;51.16;94916.75;4962248;28;20037;-65
2021/10/31 07:04:42;;;;;;;5.93;4.25;;;;;;;13.75;50.97;94917.94;4968269;28;20057;-65
2021/10/31 07:07:07;;;;;;;4.82;4.38;;;;;;;13.95;50.58;94919.00;4952258;29;20059;-66
2021/10/31 07:09:33;;;;;;;4.55;4.07;;;;;;;14.04;50.23;94911.69;4951996;29;20035;-65
2021/10/31 07:11:59;;;;;;;5.47;4.32;;;;;;;14.30;50.06;94922.09;4951259;28;20026;-65
2021/10/31 07:14:25;;;;;;;5.93;5.32;;;;;;;14.50;49.22;94918.59;4951782;28;20078;-73
2021/10/31 07:16:50;;;;;;;4.13;3.72;;;;;;;14.63;48.83;94908.66;4967324;28;20466;-74
2021/10/31 07:19:17;;;;;;;4.68;3.80;;;;;;;14.77;48.67;94919.03;4978991;28;20059;-74
2021/10/31 07:21:43;;;;;;;5.80;4.40;;;;;;;14.86;48.87;94911.66;4990319;28;20022;-75
2021/10/31 07:24:08;;;;;;;4.10;3.70;;;;;;;14.95;48.46;94917.69;4990388;28;20033;-75
2021/10/31 07:26:33;;;;;;;3.47;3.17;;;;;;;15.11;48.21;94906.28;4990657;28;20080;-76
2021/10/31 07:29:00;;;;;;;3.40;3.08;;;;;;;15.30;47.54;94917.16;4990862;28;20022;-74
2021/10/31 07:31:27;;;;;;;4.07;3.20;;;;;;;15.40;47.48;94911.31;4982176;28;20058;-74
2021/10/31 07:33:54;;;;;;;3.67;3.13;;;;;;;15.53;46.99;94902.13;4971290;28;20109;-74
2021/10/31 07:36:19;;;;;;;4.38;3.33;;;;;;;15.67;47.04;94901.00;4982694;28;20118;-75
2021/10/31 07:38:44;;;;;;;3.55;3.17;;;;;;;15.81;46.40;94893.31;4989535;28;20037;-78
2021/10/31 07:41:11;;;;;;;3.97;3.33;;;;;;;16.00;46.53;94906.09;4990174;28;20037;-74
2021/10/31 07:43:37;;;;;;;3.50;3.20;;;;;;;16.14;45.88;94900.31;4990352;28;20034;-75
2021/10/31 07:46:03;;;;;;;5.47;3.40;;;;;;;16.24;45.94;94897.13;4983440;28;20030;-74
2021/10/31 07:48:29;;;;;;;3.70;3.35;;;;;;;16.34;45.61;94892.03;4972660;28;20397;-74
2021/10/31 07:50:54;;;;;;;3.85;3.40;;;;;;;16.48;45.20;94891.59;4981814;28;20029;-74
2021/10/31 07:53:20;;;;;;;6.78;3.45;;;;;;;16.60;44.59;94902.22;4990158;28;20027;-76
2021/10/31 07:55:50;;;;;;;4.22;3.25;;;;;;;16.71;44.55;94893.66;4990543;28;20035;-75
2021/10/31 07:58:17;;;;;;;3.58;2.88;;;;;;;16.77;43.84;94894.97;4990537;28;20018;-74
2021/10/31 08:00:43;;;;;;;4.35;2.78;;;;;;;16.89;43.58;94894.88;4988476;28;20030;-70
2021/10/31 08:03:08;;;;;;;3.35;3.05;;;;;;;17.07;43.70;94896.03;4977647;28;20034;-70
2021/10/31 08:05:34;;;;;;;4.10;3.10;;;;;;;17.18;43.32;94895.50;4978117;28;20527;-71
2021/10/31 08:07:59;;;;;;;3.25;3.05;;;;;;;17.28;43.38;94898.41;4970553;28;20023;-75
2021/10/31 08:10:26;;;;;;;3.88;3.13;;;;;;;17.35;42.74;94877.06;4970177;28;20113;-70
2021/10/31 08:12:51;;;;;;;3.83;2.95;;;;;;;17.48;42.60;94877.69;4970320;28;20034;-70
2021/10/31 08:15:17;;;;;;;3.70;3.40;;;;;;;17.59;42.11;94877.88;4971809;28;20034;-71
2021/10/31 08:17:42;;;;;;;3.40;3.10;;;;;;;17.70;41.62;94878.88;4981451;28;20026;-70
2021/10/31 08:20:08;;;;;;;3.22;2.92;;;;;;;17.63;41.06;94871.44;4978228;28;20031;-70
2021/10/31 08:22:34;;;;;;;2.78;2.53;;;;;;;17.81;40.91;94863.75;4970056;28;20064;-70
2021/10/31 08:25:00;;;;;;;2.88;2.55;;;;;;;17.82;40.24;94854.56;4974065;28;20539;-70
2021/10/31 08:27:26;;;;;;;2.58;2.38;;;;;;;17.87;38.83;94864.25;4974097;28;20031;-71
2021/10/31 08:29:52;;;;;;;2.35;2.15;;;;;;;18.05;38.64;94864.56;4973976;28;20023;-71
2021/10/31 08:32:19;;;;;;;2.38;2.17;;;;;;;18.22;39.10;94847.13;4974595;28;20038;-70
2021/10/31 08:34:44;;;;;;;3.20;2.10;;;;;;;18.37;38.68;94854.31;4982166;28;20023;-70
2021/10/31 08:37:10;;;;;;;4.00;2.33;;;;;;;18.45;38.35;94851.38;4989074;28;20018;-71
2021/10/31 08:39:35;;;;;;;2.30;1.90;;;;;;;18.55;37.95;94849.22;4993344;28;20030;-70
2021/10/31 08:42:01;;;;;;;4.20;2.50;;;;;;;18.74;37.98;94849.16;4992469;28;20030;-71
2021/10/31 08:44:26;;;;;;;3.08;2.20;;;;;;;18.90;37.78;94846.31;4992842;28;20065;-70
2021/10/31 08:46:51;;;;;;;2.40;2.20;;;;;;;18.74;36.69;94840.31;4987550;28;20134;-69
2021/10/31 08:49:19;;;;;;;2.40;1.90;;;;;;;18.99;37.27;94836.06;4982128;28;20593;-71
2021/10/31 08:51:45;;;;;;;2.35;1.98;;;;;;;19.06;36.48;94825.34;4986435;28;20022;-70
2021/10/31 08:54:11;;;;;;;2.65;2.20;;;;;;;18.99;36.15;94827.16;4991323;28;20085;-71
2021/10/31 08:56:36;;;;;;;1.98;1.77;;;;;;;19.13;36.12;94825.44;4992741;28;20069;-71
2021/10/31 08:59:02;;;;;;;3.47;2.35;;;;;;;19.22;35.95;94806.28;4992636;28;20034;-70
2021/10/31 09:01:29;;;;;;;1.90;1.80;;;;;;;19.41;36.09;94806.13;4982092;28;20026;-69
2021/10/31 09:03:55;;;;;;;2.95;2.28;;;;;;;19.50;35.88;94803.16;4984065;28;20030;-70
2021/10/31 09:06:22;;;;;;;2.67;2.47;;;;;;;19.52;35.89;94800.09;4984270;28;20549;-70
2021/10/31 09:08:48;;;;;;;2.30;2.10;;;;;;;19.72;35.77;94794.16;4991410;28;20113;-69
2021/10/31 09:11:14;;;;;;;2.85;1.92;;;;;;;19.78;35.59;94783.03;4990802;28;20105;-71
2021/10/31 09:13:39;;;;;;;1.88;1.77;;;;;;;19.67;35.41;94781.00;4992173;28;20054;-70
2021/10/31 09:16:05;;;;;;;4.25;2.47;;;;;;;19.83;35.14;94769.97;4983054;28;20030;-69
2021/10/31 09:18:32;;;;;;;2.63;2.30;;;;;;;19.92;34.90;94772.38;4974439;28;20099;-68
2021/10/31 09:20:58;;;;;;;2.20;2.10;;;;;;;19.83;34.53;94783.47;4991181;28;20031;-69
2021/10/31 09:23:24;;;;;;;3.65;2.30;;;;;;;19.77;34.98;94760.69;4972954;28;20125;-69
2021/10/31 09:25:50;;;;;;;2.22;2.03;;;;;;;19.95;35.08;94777.00;4972986;28;20433;-70
2021/10/31 09:28:17;;;;;;;3.17;1.95;;;;;;;19.88;34.85;94777.72;4973283;28;20062;-71
2021/10/31 09:30:42;;;;;;;2.65;2.45;;;;;;;19.96;34.91;94762.38;4972175;28;20105;-68
2021/10/31 09:33:11;;;;;;;2.20;2.00;;;;;;;20.08;34.58;94759.41;4964589;28;20023;-69
2021/10/31 09:35:44;;;;;;;2.40;2.00;;;;;;;20.25;34.51;94753.34;4983755;28;20022;-69
2021/10/31 09:38:10;;;;;;;2.55;2.30;;;;;;;20.34;34.26;94760.38;4990908;28;20038;-69
2021/10/31 09:40:37;;;;;;;1.70;1.60;;;;;;;20.38;33.90;94745.72;4991696;28;20053;-71
2021/10/31 09:43:03;;;;;;;2.28;1.65;;;;;;;20.49;33.67;94748.53;4991861;28;20194;-70
2021/10/31 09:45:31;;;;;;;2.67;2.00;;;;;;;20.59;33.90;94745.13;4991589;28;20113;-69
2021/10/31 09:48:07;;;;;;;2.22;2.03;;;;;;;20.50;33.39;94741.97;4991232;28;20030;-69
2021/10/31 09:50:37;;;;;;;2.10;1.90;;;;;;;20.71;33.52;94744.78;4972435;28;20050;-76
2021/10/31 09:53:02;;;;;;;1.80;1.65;;;;;;;20.67;33.30;94740.50;4972312;28;20042;-69
2021/10/31 09:55:29;;;;;;;2.17;1.88;;;;;;;20.79;32.73;94742.91;4972734;28;20030;-71
2021/10/31 09:57:55;;;;;;;1.60;1.50;;;;;;;20.82;32.51;94736.72;4971606;28;20042;-74
2021/10/31 10:00:33;;;;;;;1.80;1.70;;;;;;;20.95;32.56;94729.09;4972172;28;20627;-70
2021/10/31 10:05:27;;;;;;;3.28;2.00;;;;;;;21.09;32.61;94718.31;4981909;28;20033;-68
2021/10/31 10:08:16;;;;;;;4.22;2.03;;;;;;;21.26;32.16;94723.00;4991751;28;20436;-68
2021/10/31 10:10:54;;;;;;;2.53;2.05;;;;;;;21.32;32.26;94720.72;4991082;28;20030;-69
2021/10/31 10:13:26;;;;;;;1.75;1.65;;;;;;;21.29;31.84;94708.72;4991458;28;20034;-68
2021/10/31 10:16:15;;;;;;;1.58;1.48;;;;;;;21.40;32.26;94716.13;4986702;28;21657;-69
2021/10/31 10:18:41;;;;;;;1.85;1.75;;;;;;;21.38;31.80;94694.06;4970161;28;20042;-69
2021/10/31 10:21:28;;;;;;;2.42;1.70;;;;;;;21.23;31.67;94688.59;4974349;28;20023;-70
2021/10/31 10:24:02;;;;;;;1.77;1.67;;;;;;;21.15;31.37;94680.88;4971721;28;20035;-68
2021/10/31 10:26:43;;;;;;;1.70;1.60;;;;;;;21.39;31.39;94676.69;4971919;28;20031;-68
2021/10/31 10:29:08;;;;;;;2.10;1.90;;;;;;;21.16;31.29;94663.47;4971973;28;20031;-68
2021/10/31 10:31:34;;;;;;;1.50;1.40;;;;;;;21.31;30.83;94653.50;4972187;28;20358;-69
2021/10/31 10:33:59;;;;;;;2.17;1.60;;;;;;;21.27;30.57;94656.94;4980041;28;20045;-69
2021/10/31 10:36:25;;;;;;;1.80;1.52;;;;;;;21.44;30.58;94649.25;4972522;28;20037;-69
2021/10/31 10:39:15;;;;;;;1.83;1.70;;;;;;;21.46;30.44;94638.81;4986551;28;20033;-68
2021/10/31 10:41:49;;;;;;;1.90;1.30;;;;;;;21.66;30.67;94628.41;4986180;28;20428;-69
2021/10/31 10:44:18;;;;;;;1.75;1.65;;;;;;;21.56;30.63;94624.53;4971021;28;20022;-70
2021/10/31 10:46:46;;;;;;;1.77;1.40;;;;;;;21.11;30.01;94631.41;4972713;28;20069;-69
2021/10/31 10:49:16;;;;;;;2.58;1.50;;;;;;;21.24;30.19;94617.13;4979231;28;20053;-69
2021/10/31 10:51:43;;;;;;;3.65;1.55;;;;;;;20.94;29.75;94606.66;4983677;28;20100;-69
2021/10/31 10:54:15;;;;;;;2.15;1.70;;;;;;;21.31;29.63;94610.22;4990282;28;20022;-69
2021/10/31 10:57:00;;;;;;;2.72;1.40;;;;;;;21.29;30.12;94622.16;4990549;28;20097;-69
2021/10/31 10:59:27;;;;;;;2.55;1.73;;;;;;;21.65;29.37;94608.69;4990605;28;20026;-68
2021/10/31 11:02:11;;;;;;;1.48;1.38;;;;;;;21.80;29.23;94614.84;4985696;28;20092;-68
2021/10/31 11:04:37;;;;;;;2.33;1.77;;;;;;;21.47;29.64;94584.31;4970101;28;20072;-73
2021/10/31 11:07:04;;;;;;;1.60;1.45;;;;;;;21.46;29.49;94601.72;4982415;28;20511;-70
2021/10/31 11:09:43;;;;;;;1.67;1.42;;;;;;;21.89;29.50;94606.31;4990244;28;20038;-67
2021/10/31 11:12:22;;;;;;;3.08;1.27;;;;;;;21.85;28.98;94592.78;4988587;28;20389;-69
2021/10/31 11:14:49;;;;;;;1.65;1.55;;;;;;;21.89;28.69;94584.66;4990138;28;20026;-69
2021/10/31 11:17:20;;;;;;;1.63;1.52;;;;;;;21.62;29.08;94587.78;4982404;28;20019;-71
2021/10/31 11:19:47;;;;;;;1.77;1.35;;;;;;;21.82;28.78;94585.47;4979153;28;20468;-75
2021/10/31 11:22:13;;;;;;;1.30;1.20;;;;;;;21.86;28.68;94582.75;4997595;28;20435;-77
2021/10/31 11:24:40;;;;;;;2.72;1.33;;;;;;;21.77;28.70;94583.16;4989059;28;20034;-68
2021/10/31 11:27:09;;;;;;;1.50;1.40;;;;;;;21.74;28.48;94583.91;4990039;28;20026;-79
2021/10/31 11:29:34;;;;;;;1.30;1.23;;;;;;;21.82;28.23;94561.09;4991851;28;20026;-78
2021/10/31 11:32:00;;;;;;;1.85;1.50;;;;;;;21.48;28.75;94563.44;4987062;28;20045;-76
2021/10/31 11:34:27;;;;;;;1.55;1.40;;;;;;;21.78;28.44;94574.63;4981479;28;20022;-76
2021/10/31 11:36:54;;;;;;;1.50;1.40;;;;;;;21.85;27.72;94557.59;4976226;28;20038;-74